Wyoming, Minnesota
Current Conditions -  °F | °C
As of 2:35 PM on Saturday 25 Oct 2014 (Local Time) from KOEO Reporting Station
Clear Clear  
Wind Chill: 63°   Ceiling: Unl
Heat Index: 63°   Visibility: 10mi
Dew Point: 28°   Wind: 16mph
Humidity: 27%   Direction: 290°WNW
Pressure: 30.03"   Gusts: 24mph
Location:  45.34°N, 93°W
Report Text: KOEO 251935Z AUTO 29014G21KT 10SM CLR 17/M02 A3003 RMK AO2 T01701024
Loading
Personal Weather Stations






























Interactive Weather Map
Tropical Storm Tracking
New forecast layout! Learn more

10-Day Weather Forecast

Advertisements
Track Severe Weather on mobile